sensor_id;sensor_type;location;lat;lon;timestamp;temperature;humidity
22418;DHT22;11376;50.932;4.442;2022-10-10T00:01:09;10.90;99.90
22418;DHT22;11376;50.932;4.442;2022-10-10T00:03:35;10.90;99.90
22418;DHT22;11376;50.932;4.442;2022-10-10T00:06:00;10.80;99.90
22418;DHT22;11376;50.932;4.442;2022-10-10T00:08:26;10.80;99.90
22418;DHT22;11376;50.932;4.442;2022-10-10T00:10:52;10.80;99.90
22418;DHT22;11376;50.932;4.442;2022-10-10T00:13:17;10.70;99.90
22418;DHT22;11376;50.932;4.442;2022-10-10T00:15:43;10.80;99.90
22418;DHT22;11376;50.932;4.442;2022-10-10T00:18:08;10.70;99.90
22418;DHT22;11376;50.932;4.442;2022-10-10T00:20:34;10.70;99.90
22418;DHT22;11376;50.932;4.442;2022-10-10T00:23:00;10.70;99.90
22418;DHT22;11376;50.932;4.442;2022-10-10T00:25:26;10.70;99.90
22418;DHT22;11376;50.932;4.442;2022-10-10T00:27:51;10.80;99.90
22418;DHT22;11376;50.932;4.442;2022-10-10T00:30:17;10.80;99.90
22418;DHT22;11376;50.932;4.442;2022-10-10T00:32:43;10.80;99.90
22418;DHT22;11376;50.932;4.442;2022-10-10T00:35:08;10.80;99.90
22418;DHT22;11376;50.932;4.442;2022-10-10T00:37:34;10.80;99.90
22418;DHT22;11376;50.932;4.442;2022-10-10T00:40:00;10.80;99.90
22418;DHT22;11376;50.932;4.442;2022-10-10T00:42:26;10.80;99.90
22418;DHT22;11376;50.932;4.442;2022-10-10T00:45:25;10.80;99.90
22418;DHT22;11376;50.932;4.442;2022-10-10T00:47:57;10.90;99.90
22418;DHT22;11376;50.932;4.442;2022-10-10T00:50:24;11.10;99.90
22418;DHT22;11376;50.932;4.442;2022-10-10T00:52:49;11.20;99.90
22418;DHT22;11376;50.932;4.442;2022-10-10T00:55:16;11.30;99.90
22418;DHT22;11376;50.932;4.442;2022-10-10T00:57:42;11.30;99.90
22418;DHT22;11376;50.932;4.442;2022-10-10T01:00:08;11.40;99.90
22418;DHT22;11376;50.932;4.442;2022-10-10T01:02:34;11.50;99.90
22418;DHT22;11376;50.932;4.442;2022-10-10T01:04:59;11.60;99.90
22418;DHT22;11376;50.932;4.442;2022-10-10T01:07:28;11.70;99.90
22418;DHT22;11376;50.932;4.442;2022-10-10T01:09:57;11.70;99.90
22418;DHT22;11376;50.932;4.442;2022-10-10T01:13:13;11.70;99.90
22418;DHT22;11376;50.932;4.442;2022-10-10T01:20:46;11.90;99.90
22418;DHT22;11376;50.932;4.442;2022-10-10T01:29:32;11.80;99.90
22418;DHT22;11376;50.932;4.442;2022-10-10T01:32:32;11.80;99.90
22418;DHT22;11376;50.932;4.442;2022-10-10T01:35:06;11.80;99.90
22418;DHT22;11376;50.932;4.442;2022-10-10T01:42:58;11.80;99.90
22418;DHT22;11376;50.932;4.442;2022-10-10T01:45:27;11.80;99.90
22418;DHT22;11376;50.932;4.442;2022-10-10T01:47:55;11.80;99.90
22418;DHT22;11376;50.932;4.442;2022-10-10T01:50:22;11.80;99.90
22418;DHT22;11376;50.932;4.442;2022-10-10T01:53:07;11.80;99.90
22418;DHT22;11376;50.932;4.442;2022-10-10T01:58:31;11.70;99.90
22418;DHT22;11376;50.932;4.442;2022-10-10T02:02:01;11.70;99.90
22418;DHT22;11376;50.932;4.442;2022-10-10T02:04:49;11.70;99.90
22418;DHT22;11376;50.932;4.442;2022-10-10T02:07:31;11.70;99.90
22418;DHT22;11376;50.932;4.442;2022-10-10T02:10:00;11.70;99.90
22418;DHT22;11376;50.932;4.442;2022-10-10T02:12:28;11.70;99.90
22418;DHT22;11376;50.932;4.442;2022-10-10T02:14:57;11.70;99.90
22418;DHT22;11376;50.932;4.442;2022-10-10T02:17:24;11.70;99.90
22418;DHT22;11376;50.932;4.442;2022-10-10T02:19:53;11.70;99.90
22418;DHT22;11376;50.932;4.442;2022-10-10T02:22:20;11.80;99.90
22418;DHT22;11376;50.932;4.442;2022-10-10T02:24:46;11.80;99.90
22418;DHT22;11376;50.932;4.442;2022-10-10T02:30:02;11.80;99.90
22418;DHT22;11376;50.932;4.442;2022-10-10T02:32:42;11.90;99.90
22418;DHT22;11376;50.932;4.442;2022-10-10T02:35:24;11.90;99.90
22418;DHT22;11376;50.932;4.442;2022-10-10T02:37:53;11.90;99.90
22418;DHT22;11376;50.932;4.442;2022-10-10T02:40:22;12.00;99.90
22418;DHT22;11376;50.932;4.442;2022-10-10T02:42:50;12.10;99.90
22418;DHT22;11376;50.932;4.442;2022-10-10T02:45:17;12.10;99.90
22418;DHT22;11376;50.932;4.442;2022-10-10T02:47:43;12.20;99.90
22418;DHT22;11376;50.932;4.442;2022-10-10T02:50:10;12.30;99.90
22418;DHT22;11376;50.932;4.442;2022-10-10T02:52:36;12.30;99.90
22418;DHT22;11376;50.932;4.442;2022-10-10T02:55:02;12.30;99.90
22418;DHT22;11376;50.932;4.442;2022-10-10T02:57:27;12.40;99.90
22418;DHT22;11376;50.932;4.442;2022-10-10T02:59:53;12.40;99.90
22418;DHT22;11376;50.932;4.442;2022-10-10T03:02:19;12.40;99.90
22418;DHT22;11376;50.932;4.442;2022-10-10T03:04:44;12.50;99.90
22418;DHT22;11376;50.932;4.442;2022-10-10T03:07:10;12.50;99.90
22418;DHT22;11376;50.932;4.442;2022-10-10T03:09:35;12.40;99.90
22418;DHT22;11376;50.932;4.442;2022-10-10T03:12:01;12.50;99.90
22418;DHT22;11376;50.932;4.442;2022-10-10T03:14:27;12.50;99.90
22418;DHT22;11376;50.932;4.442;2022-10-10T03:16:52;12.50;99.90
22418;DHT22;11376;50.932;4.442;2022-10-10T03:19:18;12.50;99.90
22418;DHT22;11376;50.932;4.442;2022-10-10T03:21:43;12.50;99.90
22418;DHT22;11376;50.932;4.442;2022-10-10T03:24:09;12.50;99.90
22418;DHT22;11376;50.932;4.442;2022-10-10T03:26:35;12.50;99.90
22418;DHT22;11376;50.932;4.442;2022-10-10T03:29:01;12.50;99.90
22418;DHT22;11376;50.932;4.442;2022-10-10T03:31:27;12.50;99.90
22418;DHT22;11376;50.932;4.442;2022-10-10T03:33:52;12.40;99.90
22418;DHT22;11376;50.932;4.442;2022-10-10T03:36:18;12.40;99.90
22418;DHT22;11376;50.932;4.442;2022-10-10T03:38:45;12.40;99.90
22418;DHT22;11376;50.932;4.442;2022-10-10T03:41:10;12.40;99.90
22418;DHT22;11376;50.932;4.442;2022-10-10T03:43:36;12.40;99.90
22418;DHT22;11376;50.932;4.442;2022-10-10T03:46:02;12.30;99.90
22418;DHT22;11376;50.932;4.442;2022-10-10T03:48:27;12.30;99.90
22418;DHT22;11376;50.932;4.442;2022-10-10T03:50:53;12.30;99.90
22418;DHT22;11376;50.932;4.442;2022-10-10T03:53:18;12.30;99.90
22418;DHT22;11376;50.932;4.442;2022-10-10T03:55:44;12.30;99.90
22418;DHT22;11376;50.932;4.442;2022-10-10T03:58:10;12.20;99.90
22418;DHT22;11376;50.932;4.442;2022-10-10T04:00:35;12.30;99.90
22418;DHT22;11376;50.932;4.442;2022-10-10T04:03:01;12.20;99.90
22418;DHT22;11376;50.932;4.442;2022-10-10T04:05:35;12.20;99.90
22418;DHT22;11376;50.932;4.442;2022-10-10T04:08:02;12.20;99.90
22418;DHT22;11376;50.932;4.442;2022-10-10T04:10:27;12.20;99.90
22418;DHT22;11376;50.932;4.442;2022-10-10T04:12:53;12.20;99.90
22418;DHT22;11376;50.932;4.442;2022-10-10T04:15:19;12.10;99.90
22418;DHT22;11376;50.932;4.442;2022-10-10T04:17:44;12.10;99.90
22418;DHT22;11376;50.932;4.442;2022-10-10T04:20:10;12.10;99.90
22418;DHT22;11376;50.932;4.442;2022-10-10T04:22:35;12.10;99.90
22418;DHT22;11376;50.932;4.442;2022-10-10T04:25:01;12.10;99.90
22418;DHT22;11376;50.932;4.442;2022-10-10T04:27:26;12.10;99.90
22418;DHT22;11376;50.932;4.442;2022-10-10T04:29:52;12.10;99.90
22418;DHT22;11376;50.932;4.442;2022-10-10T04:32:18;12.10;99.90
22418;DHT22;11376;50.932;4.442;2022-10-10T04:34:43;12.10;99.90
22418;DHT22;11376;50.932;4.442;2022-10-10T04:37:09;12.10;99.90
22418;DHT22;11376;50.932;4.442;2022-10-10T04:39:34;12.10;99.90
22418;DHT22;11376;50.932;4.442;2022-10-10T04:42:00;12.10;99.90
22418;DHT22;11376;50.932;4.442;2022-10-10T04:44:25;12.10;99.90
22418;DHT22;11376;50.932;4.442;2022-10-10T04:46:51;12.10;99.90
22418;DHT22;11376;50.932;4.442;2022-10-10T04:49:16;12.10;99.90
22418;DHT22;11376;50.932;4.442;2022-10-10T04:51:42;12.10;99.90
22418;DHT22;11376;50.932;4.442;2022-10-10T04:54:08;12.10;99.90
22418;DHT22;11376;50.932;4.442;2022-10-10T04:56:34;12.10;99.90
22418;DHT22;11376;50.932;4.442;2022-10-10T04:58:59;12.10;99.90
22418;DHT22;11376;50.932;4.442;2022-10-10T05:01:25;12.10;99.90
22418;DHT22;11376;50.932;4.442;2022-10-10T05:03:51;12.10;99.90
22418;DHT22;11376;50.932;4.442;2022-10-10T05:06:17;12.00;99.90
22418;DHT22;11376;50.932;4.442;2022-10-10T05:08:43;12.00;99.90
22418;DHT22;11376;50.932;4.442;2022-10-10T05:11:08;12.00;99.90
22418;DHT22;11376;50.932;4.442;2022-10-10T05:13:34;12.10;99.90
22418;DHT22;11376;50.932;4.442;2022-10-10T05:15:59;12.10;99.90
22418;DHT22;11376;50.932;4.442;2022-10-10T05:18:25;12.00;99.90
22418;DHT22;11376;50.932;4.442;2022-10-10T05:20:51;12.00;99.90
22418;DHT22;11376;50.932;4.442;2022-10-10T05:23:22;12.00;99.90
22418;DHT22;11376;50.932;4.442;2022-10-10T05:25:49;12.00;99.90
22418;DHT22;11376;50.932;4.442;2022-10-10T05:28:15;12.00;99.90
22418;DHT22;11376;50.932;4.442;2022-10-10T05:30:41;11.90;99.90
22418;DHT22;11376;50.932;4.442;2022-10-10T05:33:06;11.90;99.90
22418;DHT22;11376;50.932;4.442;2022-10-10T05:35:32;11.80;99.90
22418;DHT22;11376;50.932;4.442;2022-10-10T05:37:57;11.80;99.90
22418;DHT22;11376;50.932;4.442;2022-10-10T05:40:23;11.70;99.90
22418;DHT22;11376;50.932;4.442;2022-10-10T05:42:49;11.70;99.90
22418;DHT22;11376;50.932;4.442;2022-10-10T05:45:14;11.60;99.90
22418;DHT22;11376;50.932;4.442;2022-10-10T05:47:40;11.60;99.90
22418;DHT22;11376;50.932;4.442;2022-10-10T05:50:07;11.60;99.90
22418;DHT22;11376;50.932;4.442;2022-10-10T05:52:35;11.60;99.90
22418;DHT22;11376;50.932;4.442;2022-10-10T05:55:01;11.50;99.90
22418;DHT22;11376;50.932;4.442;2022-10-10T05:57:26;11.50;99.90
22418;DHT22;11376;50.932;4.442;2022-10-10T05:59:52;11.60;99.90
22418;DHT22;11376;50.932;4.442;2022-10-10T06:02:17;11.60;99.90
22418;DHT22;11376;50.932;4.442;2022-10-10T06:04:43;11.60;99.90
22418;DHT22;11376;50.932;4.442;2022-10-10T06:07:08;11.50;99.90
22418;DHT22;11376;50.932;4.442;2022-10-10T06:09:34;11.50;99.90
22418;DHT22;11376;50.932;4.442;2022-10-10T06:12:00;11.50;99.90
22418;DHT22;11376;50.932;4.442;2022-10-10T06:14:28;11.40;99.90
22418;DHT22;11376;50.932;4.442;2022-10-10T06:16:54;11.40;99.90
22418;DHT22;11376;50.932;4.442;2022-10-10T06:19:19;11.40;99.90
22418;DHT22;11376;50.932;4.442;2022-10-10T06:21:45;11.40;99.90
22418;DHT22;11376;50.932;4.442;2022-10-10T06:24:12;11.40;99.90
22418;DHT22;11376;50.932;4.442;2022-10-10T06:26:38;11.40;99.90
22418;DHT22;11376;50.932;4.442;2022-10-10T06:29:04;11.40;99.90
22418;DHT22;11376;50.932;4.442;2022-10-10T06:31:29;11.50;99.90
22418;DHT22;11376;50.932;4.442;2022-10-10T06:33:55;11.50;99.90
22418;DHT22;11376;50.932;4.442;2022-10-10T06:36:20;11.60;99.90
22418;DHT22;11376;50.932;4.442;2022-10-10T06:38:46;11.60;99.90
22418;DHT22;11376;50.932;4.442;2022-10-10T06:41:12;11.70;99.90
22418;DHT22;11376;50.932;4.442;2022-10-10T06:43:38;11.70;99.90
22418;DHT22;11376;50.932;4.442;2022-10-10T06:46:04;11.70;99.90
22418;DHT22;11376;50.932;4.442;2022-10-10T06:48:29;11.70;99.90
22418;DHT22;11376;50.932;4.442;2022-10-10T06:51:15;11.80;99.90
22418;DHT22;11376;50.932;4.442;2022-10-10T06:53:41;11.90;99.90
22418;DHT22;11376;50.932;4.442;2022-10-10T06:56:12;11.90;99.90
22418;DHT22;11376;50.932;4.442;2022-10-10T06:58:42;12.00;99.90
22418;DHT22;11376;50.932;4.442;2022-10-10T07:01:09;12.00;99.90
22418;DHT22;11376;50.932;4.442;2022-10-10T07:03:35;12.10;99.90
22418;DHT22;11376;50.932;4.442;2022-10-10T07:06:01;12.20;99.90
22418;DHT22;11376;50.932;4.442;2022-10-10T07:08:28;12.20;99.90
22418;DHT22;11376;50.932;4.442;2022-10-10T07:10:53;12.30;99.90
22418;DHT22;11376;50.932;4.442;2022-10-10T07:13:19;12.40;99.90
22418;DHT22;11376;50.932;4.442;2022-10-10T07:15:46;12.50;99.90
22418;DHT22;11376;50.932;4.442;2022-10-10T07:18:11;12.60;99.90
22418;DHT22;11376;50.932;4.442;2022-10-10T07:20:38;12.70;99.90
22418;DHT22;11376;50.932;4.442;2022-10-10T07:23:05;12.90;99.90
22418;DHT22;11376;50.932;4.442;2022-10-10T07:25:30;13.10;99.90
22418;DHT22;11376;50.932;4.442;2022-10-10T07:27:56;13.20;99.90
22418;DHT22;11376;50.932;4.442;2022-10-10T07:30:23;13.30;99.90
22418;DHT22;11376;50.932;4.442;2022-10-10T07:32:49;13.50;99.90
22418;DHT22;11376;50.932;4.442;2022-10-10T07:35:15;13.60;99.90
22418;DHT22;11376;50.932;4.442;2022-10-10T07:37:41;13.80;99.90
22418;DHT22;11376;50.932;4.442;2022-10-10T07:40:07;13.90;99.90
22418;DHT22;11376;50.932;4.442;2022-10-10T07:42:33;14.10;99.90
22418;DHT22;11376;50.932;4.442;2022-10-10T07:44:59;14.30;99.90
22418;DHT22;11376;50.932;4.442;2022-10-10T07:47:24;14.50;99.90
22418;DHT22;11376;50.932;4.442;2022-10-10T07:49:50;14.60;99.90
22418;DHT22;11376;50.932;4.442;2022-10-10T07:52:16;14.70;99.90
22418;DHT22;11376;50.932;4.442;2022-10-10T07:54:42;15.00;99.90
22418;DHT22;11376;50.932;4.442;2022-10-10T07:57:07;15.20;99.90
22418;DHT22;11376;50.932;4.442;2022-10-10T07:59:33;15.40;99.90
22418;DHT22;11376;50.932;4.442;2022-10-10T08:01:59;15.60;99.90
22418;DHT22;11376;50.932;4.442;2022-10-10T08:04:24;15.80;99.90
22418;DHT22;11376;50.932;4.442;2022-10-10T08:06:50;15.90;99.90
22418;DHT22;11376;50.932;4.442;2022-10-10T08:09:15;16.10;99.90
22418;DHT22;11376;50.932;4.442;2022-10-10T08:11:41;16.20;99.90
22418;DHT22;11376;50.932;4.442;2022-10-10T08:14:07;16.20;99.90
22418;DHT22;11376;50.932;4.442;2022-10-10T08:16:32;16.40;99.90
22418;DHT22;11376;50.932;4.442;2022-10-10T08:18:58;16.50;99.90
22418;DHT22;11376;50.932;4.442;2022-10-10T08:21:24;16.60;99.90
22418;DHT22;11376;50.932;4.442;2022-10-10T08:23:49;16.70;99.90
22418;DHT22;11376;50.932;4.442;2022-10-10T08:26:16;16.70;99.90
22418;DHT22;11376;50.932;4.442;2022-10-10T08:28:42;16.80;99.90
22418;DHT22;11376;50.932;4.442;2022-10-10T08:31:10;16.90;99.90
22418;DHT22;11376;50.932;4.442;2022-10-10T08:33:36;16.90;99.90
22418;DHT22;11376;50.932;4.442;2022-10-10T08:36:13;17.10;99.90
22418;DHT22;11376;50.932;4.442;2022-10-10T08:38:40;17.30;99.90
22418;DHT22;11376;50.932;4.442;2022-10-10T08:41:13;17.50;99.90
22418;DHT22;11376;50.932;4.442;2022-10-10T08:43:44;17.60;99.90
22418;DHT22;11376;50.932;4.442;2022-10-10T08:46:21;17.80;99.90
22418;DHT22;11376;50.932;4.442;2022-10-10T08:48:49;17.90;99.90
22418;DHT22;11376;50.932;4.442;2022-10-10T08:51:30;17.90;99.90
22418;DHT22;11376;50.932;4.442;2022-10-10T08:56:38;18.10;99.90
22418;DHT22;11376;50.932;4.442;2022-10-10T08:59:20;18.10;99.90
22418;DHT22;11376;50.932;4.442;2022-10-10T09:01:49;18.10;99.90
22418;DHT22;11376;50.932;4.442;2022-10-10T09:04:17;18.30;99.90
22418;DHT22;11376;50.932;4.442;2022-10-10T09:17:59;19.10;99.90
22418;DHT22;11376;50.932;4.442;2022-10-10T09:20:49;19.30;99.90
22418;DHT22;11376;50.932;4.442;2022-10-10T09:23:37;19.40;99.90
22418;DHT22;11376;50.932;4.442;2022-10-10T09:26:11;19.20;99.90
22418;DHT22;11376;50.932;4.442;2022-10-10T09:28:50;19.00;99.90
22418;DHT22;11376;50.932;4.442;2022-10-10T09:31:39;18.80;99.90
22418;DHT22;11376;50.932;4.442;2022-10-10T09:34:18;18.80;99.90
22418;DHT22;11376;50.932;4.442;2022-10-10T09:36:46;18.70;99.90
22418;DHT22;11376;50.932;4.442;2022-10-10T09:39:14;18.80;99.90
22418;DHT22;11376;50.932;4.442;2022-10-10T09:41:46;18.80;99.90
22418;DHT22;11376;50.932;4.442;2022-10-10T09:44:14;18.80;99.90
22418;DHT22;11376;50.932;4.442;2022-10-10T09:46:41;18.90;99.90
22418;DHT22;11376;50.932;4.442;2022-10-10T09:49:11;19.00;99.90
22418;DHT22;11376;50.932;4.442;2022-10-10T09:51:38;19.40;99.90
22418;DHT22;11376;50.932;4.442;2022-10-10T09:54:04;19.90;99.90
22418;DHT22;11376;50.932;4.442;2022-10-10T09:56:52;20.50;99.90
22418;DHT22;11376;50.932;4.442;2022-10-10T09:59:42;20.90;99.90
22418;DHT22;11376;50.932;4.442;2022-10-10T10:02:18;21.20;99.90
22418;DHT22;11376;50.932;4.442;2022-10-10T10:04:44;21.10;99.90
22418;DHT22;11376;50.932;4.442;2022-10-10T10:07:33;21.40;99.90
22418;DHT22;11376;50.932;4.442;2022-10-10T10:10:01;22.60;99.90
22418;DHT22;11376;50.932;4.442;2022-10-10T10:12:28;24.90;99.90
22418;DHT22;11376;50.932;4.442;2022-10-10T10:15:01;26.90;99.90
22418;DHT22;11376;50.932;4.442;2022-10-10T10:17:27;29.50;99.90
22418;DHT22;11376;50.932;4.442;2022-10-10T10:19:53;31.60;97.20
22418;DHT22;11376;50.932;4.442;2022-10-10T10:22:34;31.70;93.50
22418;DHT22;11376;50.932;4.442;2022-10-10T10:25:34;31.00;92.80
22418;DHT22;11376;50.932;4.442;2022-10-10T10:30:35;34.20;80.60
22418;DHT22;11376;50.932;4.442;2022-10-10T10:44:56;38.60;51.50
22418;DHT22;11376;50.932;4.442;2022-10-10T10:47:35;40.60;49.10
22418;DHT22;11376;50.932;4.442;2022-10-10T10:53:14;42.30;41.90
22418;DHT22;11376;50.932;4.442;2022-10-10T10:55:49;43.40;39.10
22418;DHT22;11376;50.932;4.442;2022-10-10T10:58:37;44.10;37.10
22418;DHT22;11376;50.932;4.442;2022-10-10T11:03:50;42.30;35.80
22418;DHT22;11376;50.932;4.442;2022-10-10T11:09:00;43.10;35.10
22418;DHT22;11376;50.932;4.442;2022-10-10T11:16:41;44.00;33.60
22418;DHT22;11376;50.932;4.442;2022-10-10T11:22:10;43.20;32.70
22418;DHT22;11376;50.932;4.442;2022-10-10T11:24:44;41.80;32.70
22418;DHT22;11376;50.932;4.442;2022-10-10T11:27:25;39.70;34.50
22418;DHT22;11376;50.932;4.442;2022-10-10T11:35:17;33.90;41.10
22418;DHT22;11376;50.932;4.442;2022-10-10T11:37:51;32.70;42.60
22418;DHT22;11376;50.932;4.442;2022-10-10T11:40:30;31.40;44.70
22418;DHT22;11376;50.932;4.442;2022-10-10T11:43:03;30.10;47.00
22418;DHT22;11376;50.932;4.442;2022-10-10T11:45:34;28.90;49.50
22418;DHT22;11376;50.932;4.442;2022-10-10T11:48:17;27.80;52.00
22418;DHT22;11376;50.932;4.442;2022-10-10T11:50:44;26.90;54.90
22418;DHT22;11376;50.932;4.442;2022-10-10T11:56:02;25.80;58.90
22418;DHT22;11376;50.932;4.442;2022-10-10T12:03:37;24.10;69.30
22418;DHT22;11376;50.932;4.442;2022-10-10T12:08:45;23.30;76.50
22418;DHT22;11376;50.932;4.442;2022-10-10T12:11:21;23.00;81.10
22418;DHT22;11376;50.932;4.442;2022-10-10T12:13:55;22.70;84.70
22418;DHT22;11376;50.932;4.442;2022-10-10T12:16:24;22.70;87.50
22418;DHT22;11376;50.932;4.442;2022-10-10T12:18:54;22.80;88.90
22418;DHT22;11376;50.932;4.442;2022-10-10T12:21:22;22.90;89.60
22418;DHT22;11376;50.932;4.442;2022-10-10T12:24:08;22.90;90.50
22418;DHT22;11376;50.932;4.442;2022-10-10T12:40:20;22.10;94.30
22418;DHT22;11376;50.932;4.442;2022-10-10T12:48:17;22.20;96.40
22418;DHT22;11376;50.932;4.442;2022-10-10T12:50:56;22.30;97.20
22418;DHT22;11376;50.932;4.442;2022-10-10T12:53:25;22.30;98.00
22418;DHT22;11376;50.932;4.442;2022-10-10T12:55:56;22.50;98.50
22418;DHT22;11376;50.932;4.442;2022-10-10T13:00:56;22.70;98.70
22418;DHT22;11376;50.932;4.442;2022-10-10T13:03:33;22.70;98.80
22418;DHT22;11376;50.932;4.442;2022-10-10T13:08:54;23.00;98.90
22418;DHT22;11376;50.932;4.442;2022-10-10T13:11:20;23.00;98.80
22418;DHT22;11376;50.932;4.442;2022-10-10T13:13:51;23.30;99.20
22418;DHT22;11376;50.932;4.442;2022-10-10T13:16:20;24.20;98.40
22418;DHT22;11376;50.932;4.442;2022-10-10T13:18:57;26.70;94.80
22418;DHT22;11376;50.932;4.442;2022-10-10T13:21:25;28.50;89.20
22418;DHT22;11376;50.932;4.442;2022-10-10T13:23:57;28.70;84.40
22418;DHT22;11376;50.932;4.442;2022-10-10T13:28:54;29.00;82.40
22418;DHT22;11376;50.932;4.442;2022-10-10T13:31:28;30.60;77.20
22418;DHT22;11376;50.932;4.442;2022-10-10T13:34:04;32.20;71.70
22418;DHT22;11376;50.932;4.442;2022-10-10T13:36:31;33.00;66.70
22418;DHT22;11376;50.932;4.442;2022-10-10T13:38:58;33.70;64.10
22418;DHT22;11376;50.932;4.442;2022-10-10T13:41:25;33.20;63.20
22418;DHT22;11376;50.932;4.442;2022-10-10T13:43:51;32.40;65.30
22418;DHT22;11376;50.932;4.442;2022-10-10T13:46:29;31.40;65.30
22418;DHT22;11376;50.932;4.442;2022-10-10T13:48:55;30.10;67.90
22418;DHT22;11376;50.932;4.442;2022-10-10T13:51:40;28.90;71.00
22418;DHT22;11376;50.932;4.442;2022-10-10T13:54:39;27.90;74.40
22418;DHT22;11376;50.932;4.442;2022-10-10T13:57:24;27.00;77.50
22418;DHT22;11376;50.932;4.442;2022-10-10T14:00:05;26.40;80.90
22418;DHT22;11376;50.932;4.442;2022-10-10T14:02:49;26.00;83.70
22418;DHT22;11376;50.932;4.442;2022-10-10T14:05:27;26.10;85.80
22418;DHT22;11376;50.932;4.442;2022-10-10T14:07:53;26.40;85.10
22418;DHT22;11376;50.932;4.442;2022-10-10T14:10:23;26.30;85.20
22418;DHT22;11376;50.932;4.442;2022-10-10T14:12:52;25.90;88.40
22418;DHT22;11376;50.932;4.442;2022-10-10T14:15:42;25.40;91.50
22418;DHT22;11376;50.932;4.442;2022-10-10T14:18:28;24.90;93.80
22418;DHT22;11376;50.932;4.442;2022-10-10T14:20:53;24.50;95.70
22418;DHT22;11376;50.932;4.442;2022-10-10T14:23:20;24.20;97.10
22418;DHT22;11376;50.932;4.442;2022-10-10T14:25:47;23.90;98.80
22418;DHT22;11376;50.932;4.442;2022-10-10T14:28:27;23.70;99.90
22418;DHT22;11376;50.932;4.442;2022-10-10T14:30:53;23.60;99.90
22418;DHT22;11376;50.932;4.442;2022-10-10T14:33:19;23.40;99.90
22418;DHT22;11376;50.932;4.442;2022-10-10T14:35:46;23.20;99.90
22418;DHT22;11376;50.932;4.442;2022-10-10T14:38:13;23.00;99.90
22418;DHT22;11376;50.932;4.442;2022-10-10T14:40:44;22.80;99.90
22418;DHT22;11376;50.932;4.442;2022-10-10T14:43:10;22.70;99.90
22418;DHT22;11376;50.932;4.442;2022-10-10T14:45:36;22.60;99.90
22418;DHT22;11376;50.932;4.442;2022-10-10T14:48:04;22.50;99.90
22418;DHT22;11376;50.932;4.442;2022-10-10T14:50:35;22.30;99.90
22418;DHT22;11376;50.932;4.442;2022-10-10T14:53:01;22.10;99.90
22418;DHT22;11376;50.932;4.442;2022-10-10T14:55:27;21.90;99.90
22418;DHT22;11376;50.932;4.442;2022-10-10T14:57:53;21.60;99.90
22418;DHT22;11376;50.932;4.442;2022-10-10T15:00:22;21.40;99.90
22418;DHT22;11376;50.932;4.442;2022-10-10T15:02:47;21.10;99.90
22418;DHT22;11376;50.932;4.442;2022-10-10T15:05:14;20.80;99.90
22418;DHT22;11376;50.932;4.442;2022-10-10T15:07:40;20.40;99.90
22418;DHT22;11376;50.932;4.442;2022-10-10T15:10:07;20.20;99.90
22418;DHT22;11376;50.932;4.442;2022-10-10T15:12:34;20.00;99.90
22418;DHT22;11376;50.932;4.442;2022-10-10T15:15:00;19.90;99.90
22418;DHT22;11376;50.932;4.442;2022-10-10T15:17:26;19.80;99.90
22418;DHT22;11376;50.932;4.442;2022-10-10T15:19:53;19.70;99.90
22418;DHT22;11376;50.932;4.442;2022-10-10T15:22:19;19.50;99.90
22418;DHT22;11376;50.932;4.442;2022-10-10T15:24:45;19.50;99.90
22418;DHT22;11376;50.932;4.442;2022-10-10T15:27:10;19.40;99.90
22418;DHT22;11376;50.932;4.442;2022-10-10T15:29:37;19.20;99.90
22418;DHT22;11376;50.932;4.442;2022-10-10T15:32:04;19.10;99.90
22418;DHT22;11376;50.932;4.442;2022-10-10T15:34:29;18.90;99.90
22418;DHT22;11376;50.932;4.442;2022-10-10T15:36:55;18.70;99.90
22418;DHT22;11376;50.932;4.442;2022-10-10T15:39:20;18.60;99.90
22418;DHT22;11376;50.932;4.442;2022-10-10T15:41:46;18.50;99.90
22418;DHT22;11376;50.932;4.442;2022-10-10T15:44:14;18.40;99.90
22418;DHT22;11376;50.932;4.442;2022-10-10T15:46:41;18.20;99.90
22418;DHT22;11376;50.932;4.442;2022-10-10T15:49:07;18.10;99.90
22418;DHT22;11376;50.932;4.442;2022-10-10T15:51:33;17.90;99.90
22418;DHT22;11376;50.932;4.442;2022-10-10T15:53:58;17.70;99.90
22418;DHT22;11376;50.932;4.442;2022-10-10T15:56:24;17.60;99.90
22418;DHT22;11376;50.932;4.442;2022-10-10T15:58:58;17.50;99.90
22418;DHT22;11376;50.932;4.442;2022-10-10T16:01:25;17.40;99.90
22418;DHT22;11376;50.932;4.442;2022-10-10T16:03:54;17.40;99.90
22418;DHT22;11376;50.932;4.442;2022-10-10T16:06:21;17.30;99.90
22418;DHT22;11376;50.932;4.442;2022-10-10T16:08:47;17.20;99.90
22418;DHT22;11376;50.932;4.442;2022-10-10T16:11:18;17.10;99.90
22418;DHT22;11376;50.932;4.442;2022-10-10T16:13:51;17.10;99.90
22418;DHT22;11376;50.932;4.442;2022-10-10T16:16:18;17.10;99.90
22418;DHT22;11376;50.932;4.442;2022-10-10T16:18:44;17.00;99.90
22418;DHT22;11376;50.932;4.442;2022-10-10T16:21:16;17.00;99.90
22418;DHT22;11376;50.932;4.442;2022-10-10T16:23:44;16.90;99.90
22418;DHT22;11376;50.932;4.442;2022-10-10T16:26:19;17.00;99.90
22418;DHT22;11376;50.932;4.442;2022-10-10T16:28:45;16.90;99.90
22418;DHT22;11376;50.932;4.442;2022-10-10T16:31:14;16.90;99.90
22418;DHT22;11376;50.932;4.442;2022-10-10T16:33:41;16.90;99.90
22418;DHT22;11376;50.932;4.442;2022-10-10T16:36:08;16.80;99.90
22418;DHT22;11376;50.932;4.442;2022-10-10T16:38:34;16.80;99.90
22418;DHT22;11376;50.932;4.442;2022-10-10T16:41:04;16.80;99.90
22418;DHT22;11376;50.932;4.442;2022-10-10T16:43:30;16.80;99.90
22418;DHT22;11376;50.932;4.442;2022-10-10T16:46:00;16.70;99.90
22418;DHT22;11376;50.932;4.442;2022-10-10T16:48:29;16.70;99.90
22418;DHT22;11376;50.932;4.442;2022-10-10T16:50:54;16.70;99.90
22418;DHT22;11376;50.932;4.442;2022-10-10T16:53:20;16.70;99.90
22418;DHT22;11376;50.932;4.442;2022-10-10T16:55:46;16.70;99.90
22418;DHT22;11376;50.932;4.442;2022-10-10T16:58:11;16.70;99.90
22418;DHT22;11376;50.932;4.442;2022-10-10T17:00:40;16.70;99.90
22418;DHT22;11376;50.932;4.442;2022-10-10T17:03:05;16.70;99.90
22418;DHT22;11376;50.932;4.442;2022-10-10T17:05:31;16.60;99.90
22418;DHT22;11376;50.932;4.442;2022-10-10T17:07:56;16.60;99.90
22418;DHT22;11376;50.932;4.442;2022-10-10T17:10:22;16.60;99.90
22418;DHT22;11376;50.932;4.442;2022-10-10T17:12:48;16.60;99.90
22418;DHT22;11376;50.932;4.442;2022-10-10T17:15:13;16.60;99.90
22418;DHT22;11376;50.932;4.442;2022-10-10T17:17:39;16.50;99.90
22418;DHT22;11376;50.932;4.442;2022-10-10T17:20:05;16.40;99.90
22418;DHT22;11376;50.932;4.442;2022-10-10T17:22:31;16.40;99.90
22418;DHT22;11376;50.932;4.442;2022-10-10T17:24:57;16.30;99.90
22418;DHT22;11376;50.932;4.442;2022-10-10T17:27:23;16.30;99.90
22418;DHT22;11376;50.932;4.442;2022-10-10T17:29:53;16.20;99.90
22418;DHT22;11376;50.932;4.442;2022-10-10T17:32:19;16.20;99.90